createdAt,value
2023-03-02T00:01:45.456Z,66.40
2023-03-02T00:04:27.732Z,66.38
2023-03-02T00:06:59.688Z,66.62
2023-03-02T00:09:28.152Z,66.70
2023-03-02T00:11:55.258Z,66.03
2023-03-02T00:14:22.309Z,66.81
2023-03-02T00:16:49.240Z,66.82
2023-03-02T00:19:16.275Z,66.85
2023-03-02T00:21:43.316Z,67.28
2023-03-02T00:24:10.372Z,66.79
2023-03-02T00:26:37.776Z,66.77
2023-03-02T00:29:04.877Z,67.11
2023-03-02T00:31:32.629Z,67.07
2023-03-02T00:33:59.566Z,66.87
2023-03-02T00:36:26.482Z,67.07
2023-03-02T00:38:53.668Z,67.20
2023-03-02T00:41:21.603Z,67.75
2023-03-02T00:43:50.162Z,67.80
2023-03-02T00:46:22.375Z,67.71
2023-03-02T00:48:50.088Z,67.78
2023-03-02T00:51:17.957Z,67.67
2023-03-02T00:53:45.143Z,67.73
2023-03-02T00:56:12.221Z,68.01
2023-03-02T00:58:39.726Z,67.81
2023-03-02T01:01:13.176Z,68.19
2023-03-02T01:03:40.367Z,68.03
2023-03-02T01:06:19.538Z,68.59
2023-03-02T01:08:46.451Z,68.71
2023-03-02T01:11:16.328Z,68.92
2023-03-02T01:13:43.916Z,68.60
2023-03-02T01:16:11.902Z,69.00
2023-03-02T01:18:39.032Z,69.57
2023-03-02T01:21:12.961Z,69.92
2023-03-02T01:23:39.915Z,69.79
2023-03-02T01:26:07.698Z,69.88
2023-03-02T01:28:34.588Z,70.02
2023-03-02T01:31:03.164Z,70.48
2023-03-02T01:33:30.837Z,70.90
2023-03-02T01:35:57.924Z,71.06
2023-03-02T01:38:24.906Z,71.17
2023-03-02T01:40:51.859Z,71.37
2023-03-02T01:43:18.751Z,71.53
2023-03-02T01:45:54.871Z,72.12
2023-03-02T01:48:58.675Z,72.00
2023-03-02T01:51:28.921Z,72.13
2023-03-02T01:54:01.313Z,72.34
2023-03-02T01:56:34.782Z,72.26
2023-03-02T01:59:09.481Z,72.47
2023-03-02T02:01:41.406Z,72.42
2023-03-02T02:04:08.597Z,72.99
2023-03-02T02:06:41.159Z,73.28
2023-03-02T02:09:13.490Z,73.41
2023-03-02T02:11:40.363Z,73.19
2023-03-02T02:14:07.568Z,73.38
2023-03-02T02:16:36.186Z,73.48
2023-03-02T02:19:12.923Z,73.61
2023-03-02T02:21:39.940Z,73.85
2023-03-02T02:24:22.100Z,74.20
2023-03-02T02:26:57.383Z,74.33
2023-03-02T02:29:30.997Z,74.23
2023-03-02T02:32:22.863Z,74.84
2023-03-02T02:35:12.643Z,74.65
2023-03-02T02:37:55.746Z,74.86
2023-03-02T02:40:48.501Z,74.63
2023-03-02T02:43:19.866Z,75.01
2023-03-02T02:45:52.337Z,75.01
2023-03-02T02:48:25.365Z,75.44
2023-03-02T02:51:00.234Z,75.45
2023-03-02T02:53:58.604Z,75.54
2023-03-02T02:56:33.343Z,75.15
2023-03-02T02:59:17.610Z,75.36
2023-03-02T03:01:46.873Z,75.34
2023-03-02T03:04:18.900Z,75.85
2023-03-02T03:07:01.399Z,75.56
2023-03-02T03:09:28.951Z,76.08
2023-03-02T03:12:02.195Z,76.10
2023-03-02T03:14:35.612Z,76.23
2023-03-02T03:17:02.635Z,76.55
2023-03-02T03:19:32.714Z,76.56
2023-03-02T03:22:02.503Z,76.33
2023-03-02T03:24:32.091Z,76.88
2023-03-02T03:26:59.764Z,76.79
2023-03-02T03:29:29.346Z,77.19
2023-03-02T03:31:58.298Z,77.11
2023-03-02T03:34:25.942Z,77.22
2023-03-02T03:36:53.074Z,77.50
2023-03-02T03:39:20.361Z,77.51
2023-03-02T03:41:47.295Z,77.85
2023-03-02T03:44:14.234Z,77.77
2023-03-02T03:46:41.142Z,77.78
2023-03-02T03:49:08.034Z,77.87
2023-03-02T03:51:35.233Z,77.91
2023-03-02T03:54:08.370Z,77.94
2023-03-02T03:56:40.990Z,78.38
2023-03-02T03:59:12.485Z,78.21
2023-03-02T04:01:52.718Z,78.31
2023-03-02T04:04:27.311Z,78.24
2023-03-02T04:06:54.645Z,78.10
2023-03-02T04:09:23.270Z,78.87
2023-03-02T04:11:54.548Z,78.47
2023-03-02T04:14:23.714Z,78.71
2023-03-02T04:16:51.814Z,78.55
2023-03-02T04:19:19.089Z,78.70
2023-03-02T04:21:50.665Z,78.66
2023-03-02T04:24:20.341Z,79.00
2023-03-02T04:26:49.166Z,79.14
2023-03-02T04:29:17.932Z,78.85
2023-03-02T04:31:44.808Z,79.28
2023-03-02T04:34:11.845Z,78.94
2023-03-02T04:36:40.159Z,79.67
2023-03-02T04:39:08.032Z,79.28
2023-03-02T04:41:35.818Z,79.61
2023-03-02T04:44:03.025Z,79.50
2023-03-02T04:46:30.030Z,80.03
2023-03-02T04:48:57.064Z,79.98
2023-03-02T04:51:31.262Z,79.57
2023-03-02T04:54:05.896Z,79.55
2023-03-02T04:56:33.449Z,79.71
2023-03-02T04:59:00.777Z,79.97
2023-03-02T05:01:28.299Z,80.23
2023-03-02T05:03:55.281Z,80.55
2023-03-02T05:06:24.585Z,80.75
2023-03-02T05:08:53.406Z,80.85
2023-03-02T05:11:29.869Z,80.92
2023-03-02T05:14:01.002Z,80.94
2023-03-02T05:16:32.474Z,81.22
2023-03-02T05:19:01.544Z,80.78
2023-03-02T05:21:28.488Z,81.09
2023-03-02T05:23:55.399Z,80.84
2023-03-02T05:26:22.835Z,81.58
2023-03-02T05:28:50.114Z,80.91
2023-03-02T05:31:24.350Z,81.55
2023-03-02T05:33:51.334Z,81.52
2023-03-02T05:36:19.900Z,81.27
2023-03-02T05:38:48.229Z,81.81
2023-03-02T05:41:15.451Z,81.74
2023-03-02T05:43:42.393Z,81.93
2023-03-02T05:46:09.310Z,82.15
2023-03-02T05:48:36.218Z,82.00
2023-03-02T05:51:03.331Z,82.30
2023-03-02T05:53:30.251Z,81.93
2023-03-02T05:55:57.106Z,82.10
2023-03-02T05:58:24.096Z,81.95
2023-03-02T06:00:51.847Z,82.10
2023-03-02T06:03:19.206Z,82.38
2023-03-02T06:05:50.900Z,82.12
2023-03-02T06:08:20.109Z,82.21
2023-03-02T06:10:47.166Z,82.06
2023-03-02T06:13:14.054Z,82.55
2023-03-02T06:15:42.589Z,82.89
2023-03-02T06:18:09.571Z,82.55
2023-03-02T06:20:36.404Z,82.59
2023-03-02T06:23:03.276Z,82.63
2023-03-02T06:25:30.247Z,82.64
2023-03-02T06:27:57.115Z,82.87
2023-03-02T06:30:26.064Z,83.00
2023-03-02T06:32:53.018Z,82.63
2023-03-02T06:35:20.147Z,82.33
2023-03-02T06:37:47.202Z,81.82
2023-03-02T06:40:14.619Z,81.54
2023-03-02T06:42:42.759Z,80.76
2023-03-02T06:45:10.819Z,80.29
2023-03-02T06:47:38.077Z,79.71
2023-03-02T06:50:06.588Z,79.00
2023-03-02T06:52:33.734Z,78.47
2023-03-02T06:55:00.612Z,77.36
2023-03-02T06:57:33.786Z,76.35
2023-03-02T07:00:17.033Z,75.81
2023-03-02T07:02:49.983Z,75.79
2023-03-02T07:05:17.214Z,74.77
2023-03-02T07:07:44.247Z,73.39
2023-03-02T07:10:13.384Z,71.96
2023-03-02T07:12:41.966Z,70.62
2023-03-02T07:15:12.218Z,70.32
2023-03-02T07:17:40.866Z,69.43
2023-03-02T07:20:09.434Z,68.44
2023-03-02T07:22:36.518Z,67.97
2023-03-02T07:25:03.595Z,67.20
2023-03-02T07:27:31.429Z,67.05
2023-03-02T07:29:58.341Z,65.76
2023-03-02T07:32:25.458Z,65.00
2023-03-02T07:34:52.756Z,63.78
2023-03-02T07:37:20.074Z,62.87
2023-03-02T07:39:49.161Z,61.88
2023-03-02T07:42:17.560Z,62.08
2023-03-02T07:44:44.562Z,60.79
2023-03-02T07:47:11.448Z,60.51
2023-03-02T07:49:38.801Z,59.96
2023-03-02T07:52:06.317Z,58.82
2023-03-02T07:54:34.168Z,57.77
2023-03-02T07:57:01.165Z,57.23
2023-03-02T07:59:28.889Z,56.35
2023-03-02T08:01:57.503Z,55.42
2023-03-02T08:04:25.401Z,54.54
2023-03-02T08:06:52.574Z,53.94
2023-03-02T08:09:19.536Z,54.14
2023-03-02T08:11:47.838Z,53.86
2023-03-02T08:14:14.925Z,54.10
2023-03-02T08:16:41.985Z,53.87
2023-03-02T08:19:08.962Z,53.64
2023-03-02T08:21:36.022Z,53.30
2023-03-02T08:24:03.743Z,52.70
2023-03-02T08:26:31.009Z,52.63
2023-03-02T08:28:58.839Z,52.34
2023-03-02T08:31:26.737Z,52.10
2023-03-02T08:33:54.157Z,52.12
2023-03-02T08:36:21.797Z,52.00
2023-03-02T08:38:49.679Z,52.40
2023-03-02T08:41:20.713Z,53.10
2023-03-02T08:43:48.485Z,53.33
2023-03-02T08:46:19.119Z,53.07
2023-03-02T08:48:46.167Z,52.84
2023-03-02T08:51:17.797Z,52.45
2023-03-02T08:53:48.083Z,51.88
2023-03-02T08:56:26.416Z,51.43
2023-03-02T08:58:55.867Z,50.38
2023-03-02T09:01:32.493Z,50.09
2023-03-02T09:04:00.802Z,50.25
2023-03-02T09:06:30.181Z,50.24
2023-03-02T09:08:58.002Z,49.98
2023-03-02T09:11:26.794Z,49.63
2023-03-02T09:13:54.623Z,49.14
2023-03-02T09:16:21.938Z,48.73
2023-03-02T09:18:48.865Z,48.13
2023-03-02T09:21:18.677Z,47.18
2023-03-02T09:23:45.907Z,46.95
2023-03-02T09:26:12.946Z,46.72
2023-03-02T09:28:39.904Z,45.96
2023-03-02T09:31:08.862Z,45.18
2023-03-02T09:33:36.156Z,44.71
2023-03-02T09:36:12.010Z,43.65
2023-03-02T09:38:38.942Z,44.76
2023-03-02T09:41:20.975Z,44.19
2023-03-02T09:44:38.589Z,44.18
2023-03-02T09:47:35.454Z,43.70
2023-03-02T09:50:30.935Z,43.75
2023-03-02T09:53:11.920Z,43.60
2023-03-02T09:55:39.244Z,43.77
2023-03-02T09:58:17.571Z,43.28
2023-03-02T10:00:46.377Z,43.18
2023-03-02T10:03:28.510Z,42.61
2023-03-02T10:05:56.459Z,43.77
2023-03-02T10:08:27.788Z,43.62
2023-03-02T10:11:34.484Z,44.29
2023-03-02T10:14:12.072Z,44.84
2023-03-02T10:17:22.055Z,45.02
2023-03-02T10:19:57.812Z,45.16
2023-03-02T10:22:36.903Z,45.29
2023-03-02T10:25:28.669Z,45.21
2023-03-02T10:28:15.171Z,45.79
2023-03-02T10:30:42.561Z,45.99
2023-03-02T10:33:21.812Z,46.99
2023-03-02T10:35:53.116Z,47.68
2023-03-02T10:38:23.389Z,48.57
2023-03-02T10:41:00.384Z,48.56
2023-03-02T10:43:50.491Z,48.92
2023-03-02T10:46:17.512Z,49.56
2023-03-02T10:49:02.659Z,49.61
2023-03-02T10:51:35.521Z,50.03
2023-03-02T10:54:10.328Z,50.42
2023-03-02T10:56:37.964Z,50.33
2023-03-02T10:59:29.555Z,51.16
2023-03-02T11:02:22.415Z,52.03
2023-03-02T12:05:04.809Z,59.01
2023-03-02T14:23:57.159Z,68.01
2023-03-02T14:32:34.958Z,68.30
2023-03-02T14:41:04.455Z,68.82
2023-03-02T14:43:31.881Z,69.11
2023-03-02T14:45:58.847Z,69.68
2023-03-02T14:48:25.716Z,69.54
2023-03-02T14:50:52.644Z,69.94
2023-03-02T14:53:26.966Z,70.14
2023-03-02T14:55:54.068Z,70.38
2023-03-02T14:58:32.898Z,70.56
2023-03-02T15:01:00.787Z,70.99
2023-03-02T15:03:29.325Z,71.50
2023-03-02T15:06:01.362Z,71.75
2023-03-02T15:08:29.662Z,72.44
2023-03-02T15:10:56.686Z,72.21
2023-03-02T15:13:23.557Z,72.45
2023-03-02T15:15:50.580Z,72.58
2023-03-02T15:18:19.817Z,72.52
2023-03-02T15:20:46.977Z,72.69
2023-03-02T15:23:13.977Z,72.49
2023-03-02T15:25:40.950Z,72.81
2023-03-02T15:28:07.865Z,72.86
2023-03-02T15:30:34.745Z,72.68
2023-03-02T15:33:01.663Z,73.03
2023-03-02T15:35:29.478Z,73.06
2023-03-02T15:37:58.318Z,73.15
2023-03-02T15:40:25.711Z,72.94
2023-03-02T15:42:53.136Z,72.81
2023-03-02T15:45:20.162Z,73.18
2023-03-02T15:47:47.418Z,73.18
2023-03-02T15:50:14.472Z,73.30
2023-03-02T15:52:41.921Z,73.87
2023-03-02T15:55:09.598Z,73.90
2023-03-02T15:57:39.034Z,74.07
2023-03-02T16:00:07.257Z,74.76
2023-03-02T16:02:34.499Z,74.51
2023-03-02T16:05:01.450Z,74.64
2023-03-02T16:07:28.372Z,74.39
2023-03-02T16:09:55.264Z,74.54
2023-03-02T16:12:25.448Z,75.03
2023-03-02T16:14:52.376Z,74.94
2023-03-02T16:17:19.315Z,75.58
2023-03-02T16:19:46.244Z,75.55
2023-03-02T16:22:13.139Z,75.55
2023-03-02T16:24:41.828Z,75.10
2023-03-02T16:27:09.115Z,75.60
2023-03-02T16:29:36.103Z,75.75
2023-03-02T16:32:03.106Z,75.86
2023-03-02T16:34:30.106Z,75.97
2023-03-02T16:36:56.991Z,75.91
2023-03-02T16:39:24.190Z,76.03
2023-03-02T16:41:51.385Z,76.20
2023-03-02T16:44:18.627Z,76.22
2023-03-02T16:46:46.194Z,76.61
2023-03-02T16:49:14.544Z,76.52
2023-03-02T16:51:42.721Z,76.67
2023-03-02T16:54:10.423Z,76.86
2023-03-02T16:56:37.575Z,76.67
2023-03-02T16:59:04.490Z,77.04
2023-03-02T17:01:31.472Z,77.21
2023-03-02T17:03:58.458Z,77.11
2023-03-02T17:06:25.583Z,77.16
2023-03-02T17:08:52.680Z,76.98
2023-03-02T17:11:20.385Z,77.20
2023-03-02T17:13:47.309Z,77.53
2023-03-02T17:16:16.135Z,77.70
2023-03-02T17:18:46.774Z,77.94
2023-03-02T17:21:16.323Z,77.83
2023-03-02T17:23:43.749Z,77.76
2023-03-02T17:26:10.674Z,77.72
2023-03-02T17:28:38.571Z,77.85
2023-03-02T17:31:05.832Z,78.04
2023-03-02T17:33:33.951Z,78.35
2023-03-02T17:36:11.907Z,78.20
2023-03-02T17:38:40.303Z,78.37
2023-03-02T17:41:10.400Z,78.24
2023-03-02T17:43:40.323Z,78.20
2023-03-02T17:46:20.103Z,78.22
2023-03-02T17:48:49.936Z,78.33
2023-03-02T17:51:17.438Z,78.16
2023-03-02T17:53:49.617Z,78.40
2023-03-02T17:56:18.964Z,78.78
2023-03-02T17:58:46.838Z,78.40
2023-03-02T18:01:15.792Z,78.74
2023-03-02T18:03:45.052Z,79.14
2023-03-02T18:06:13.278Z,78.68
2023-03-02T18:08:40.916Z,78.87
2023-03-02T18:11:07.895Z,78.76
2023-03-02T18:13:34.815Z,78.66
2023-03-02T18:16:01.759Z,78.65
2023-03-02T18:18:28.704Z,78.36
2023-03-02T18:20:55.857Z,78.63
2023-03-02T18:23:22.782Z,78.88
2023-03-02T18:25:49.850Z,78.84
2023-03-02T18:28:17.047Z,79.10
2023-03-02T18:30:44.745Z,79.18
2023-03-02T18:33:11.717Z,79.20
2023-03-02T18:35:38.914Z,79.25
2023-03-02T18:38:06.226Z,79.20
2023-03-02T18:40:33.896Z,79.06
2023-03-02T18:43:00.864Z,79.14
2023-03-02T18:45:31.207Z,78.86
2023-03-02T18:47:59.737Z,79.08
2023-03-02T18:50:28.381Z,79.11
2023-03-02T18:52:55.660Z,79.31
2023-03-02T18:55:24.904Z,79.49
2023-03-02T18:57:55.065Z,79.59
2023-03-02T19:00:27.821Z,79.67
2023-03-02T19:02:56.004Z,79.82
2023-03-02T19:05:26.982Z,80.08
2023-03-02T19:07:54.829Z,80.25
2023-03-02T19:10:21.761Z,80.53
2023-03-02T19:12:48.737Z,80.71
2023-03-02T19:15:16.154Z,80.72
2023-03-02T19:17:43.750Z,80.39
2023-03-02T19:20:18.283Z,80.27
2023-03-02T19:22:45.983Z,80.40
2023-03-02T19:25:12.850Z,80.30
2023-03-02T19:27:40.720Z,80.30
2023-03-02T19:30:12.288Z,80.28
2023-03-02T19:32:39.220Z,80.29
2023-03-02T19:35:06.849Z,80.30
2023-03-02T19:37:33.738Z,80.49
2023-03-02T19:40:01.363Z,80.28
2023-03-02T19:42:30.383Z,80.36
2023-03-02T19:44:57.422Z,80.27
2023-03-02T19:47:24.368Z,80.31
2023-03-02T19:49:51.270Z,80.55
2023-03-02T19:52:18.156Z,80.38
2023-03-02T19:54:45.196Z,80.29
2023-03-02T19:57:12.211Z,80.68
2023-03-02T19:59:41.101Z,80.77
2023-03-02T20:02:08.036Z,80.80
2023-03-02T20:04:35.266Z,80.73
2023-03-02T20:07:03.075Z,80.95
2023-03-02T20:09:30.113Z,81.05
2023-03-02T20:11:58.588Z,81.28
2023-03-02T20:14:33.878Z,81.36
2023-03-02T20:17:04.971Z,81.43
2023-03-02T20:19:31.902Z,81.84
2023-03-02T20:21:59.002Z,81.77
2023-03-02T20:24:25.898Z,82.01
2023-03-02T20:26:52.858Z,81.98
2023-03-02T20:29:19.776Z,82.27
2023-03-02T20:31:46.897Z,82.44
2023-03-02T20:34:16.484Z,82.41
2023-03-02T20:36:44.469Z,82.35
2023-03-02T20:39:18.246Z,82.26
2023-03-02T20:41:45.771Z,82.33
2023-03-02T20:44:14.655Z,82.34
2023-03-02T20:46:48.405Z,82.55
2023-03-02T20:49:15.770Z,82.90
2023-03-02T20:51:49.196Z,82.59
2023-03-02T20:54:17.064Z,82.14
2023-03-02T20:56:44.592Z,82.68
2023-03-02T20:59:13.341Z,82.58
2023-03-02T21:01:40.860Z,82.25
2023-03-02T21:04:07.817Z,82.40
2023-03-02T21:06:34.916Z,82.52
2023-03-02T21:09:04.460Z,82.56
2023-03-02T21:11:31.414Z,82.64
2023-03-02T21:13:59.558Z,82.62
2023-03-02T21:16:32.423Z,82.71
2023-03-02T21:18:59.554Z,82.67
2023-03-02T21:21:40.366Z,82.50
2023-03-02T21:24:10.984Z,82.95
2023-03-02T21:26:38.871Z,82.68
2023-03-02T21:29:06.328Z,82.84
2023-03-02T21:31:33.577Z,82.69
2023-03-02T21:34:00.758Z,82.87
2023-03-02T21:36:28.517Z,82.55
2023-03-02T21:38:56.115Z,82.69
2023-03-02T21:41:23.631Z,83.23
2023-03-02T21:43:51.351Z,83.20
2023-03-02T21:46:22.795Z,83.83
2023-03-02T21:48:51.611Z,83.76
2023-03-02T21:51:18.700Z,83.22
2023-03-02T21:53:46.654Z,83.75
2023-03-02T21:56:20.742Z,83.81
2023-03-02T21:58:49.857Z,83.63
2023-03-02T22:01:17.288Z,83.59
2023-03-02T22:03:44.878Z,83.41
2023-03-02T22:06:21.888Z,83.78
2023-03-02T22:08:49.427Z,83.53
2023-03-02T22:11:34.242Z,83.64
2023-03-02T22:14:10.652Z,83.41
2023-03-02T22:16:40.908Z,83.58
2023-03-02T22:19:28.591Z,83.93
2023-03-02T22:22:05.515Z,83.28
2023-03-02T22:24:33.631Z,83.57
2023-03-02T22:27:23.231Z,83.66
2023-03-02T22:29:53.077Z,83.84
2023-03-02T22:32:25.819Z,83.23
2023-03-02T22:35:31.932Z,83.61
2023-03-02T22:38:10.761Z,83.51
2023-03-02T22:40:37.970Z,83.53
2023-03-02T22:43:29.439Z,83.52
2023-03-02T22:46:21.767Z,83.61
2023-03-02T22:48:51.440Z,83.41
2023-03-02T22:51:21.284Z,83.46
2023-03-02T22:53:53.485Z,83.58
2023-03-02T22:56:38.573Z,83.60
2023-03-02T22:59:25.905Z,83.63
2023-03-02T23:02:01.567Z,83.31
2023-03-02T23:04:36.496Z,83.37
2023-03-02T23:07:16.761Z,83.58
2023-03-02T23:09:43.899Z,83.85
2023-03-02T23:12:27.386Z,83.74
2023-03-02T23:14:57.982Z,83.20
2023-03-02T23:17:39.549Z,83.14
2023-03-02T23:20:11.734Z,83.16
2023-03-02T23:22:39.131Z,83.02
2023-03-02T23:25:09.286Z,83.01
2023-03-02T23:27:36.506Z,83.24
2023-03-02T23:30:06.100Z,83.24
2023-03-02T23:32:33.151Z,83.31
2023-03-02T23:35:00.124Z,83.25
2023-03-02T23:37:27.087Z,83.30
2023-03-02T23:39:53.958Z,82.93
2023-03-02T23:42:20.865Z,82.90
2023-03-02T23:44:47.811Z,83.29
2023-03-02T23:47:14.735Z,83.23
2023-03-02T23:49:41.658Z,83.22
2023-03-02T23:52:08.542Z,83.68
2023-03-02T23:54:35.411Z,83.52
2023-03-02T23:57:02.361Z,83.36
2023-03-02T23:59:29.363Z,83.53
